Time;durP1;ratioP1;P1;durP2;ratioP2;P2;SDS_P1;SDS_P2;PMS_P1;PMS_P2;Temp;Humidity;BMP_temperature;BMP_pressure;BME280_temperature;BME280_humidity;BME280_pressure;Samples;Min_cycle;Max_cycle;Signal;HPM_P1;HPM_P2
2022/10/23 00:02:11;;;;;;;0.10;0.10;;;12.40;99.90;;;;;;5053459;28;20033;-76
2022/10/23 00:04:36;;;;;;;0.10;0.10;;;12.40;99.90;;;;;;5035709;28;20052;-76
2022/10/23 00:07:02;;;;;;;0.10;0.10;;;12.40;99.90;;;;;;5053357;28;20067;-76
2022/10/23 00:09:28;;;;;;;0.38;0.38;;;12.40;99.90;;;;;;5053581;28;20056;-76
2022/10/23 00:11:54;;;;;;;0.13;0.13;;;12.40;99.90;;;;;;5018891;28;20384;-76
2022/10/23 00:14:22;;;;;;;0.10;0.10;;;12.20;99.90;;;;;;5053371;28;20025;-76
2022/10/23 00:16:48;;;;;;;0.10;0.10;;;12.00;99.90;;;;;;5035548;28;20079;-76
2022/10/23 00:19:14;;;;;;;0.10;0.10;;;11.90;99.90;;;;;;5053224;28;20057;-77
2022/10/23 00:21:40;;;;;;;0.10;0.10;;;12.10;99.90;;;;;;5035333;28;20114;-76
2022/10/23 00:24:07;;;;;;;0.20;0.20;;;12.10;99.90;;;;;;5053486;28;20070;-75
2022/10/23 00:26:33;;;;;;;0.10;0.10;;;12.10;99.90;;;;;;5052987;28;20017;-76
2022/10/23 00:28:59;;;;;;;0.10;0.10;;;12.30;99.90;;;;;;5053137;28;20412;-76
2022/10/23 00:31:25;;;;;;;0.10;0.10;;;12.40;99.90;;;;;;5053092;28;20033;-77
2022/10/23 00:33:51;;;;;;;0.10;0.10;;;12.40;99.90;;;;;;5053020;28;20068;-76
2022/10/23 00:36:19;;;;;;;0.10;0.10;;;12.60;99.90;;;;;;5052795;28;20029;-76
2022/10/23 00:38:46;;;;;;;0.10;0.10;;;12.70;99.90;;;;;;5035147;28;20037;-76
2022/10/23 00:41:27;;;;;;;0.10;0.10;;;12.70;99.90;;;;;;5052783;28;20024;-76
2022/10/23 00:44:01;;;;;;;0.10;0.10;;;12.80;99.90;;;;;;5052362;28;20465;-76
2022/10/23 00:46:27;;;;;;;0.10;0.10;;;12.80;99.90;;;;;;5052660;28;20018;-77
2022/10/23 00:48:53;;;;;;;0.10;0.10;;;12.70;99.90;;;;;;5034933;28;20078;-76
2022/10/23 00:51:19;;;;;;;0.10;0.10;;;12.60;99.90;;;;;;5052694;28;20025;-76
2022/10/23 00:53:48;;;;;;;0.10;0.10;;;12.60;99.90;;;;;;5052591;28;20033;-77
2022/10/23 00:56:13;;;;;;;0.10;0.10;;;12.50;99.90;;;;;;5018274;28;20035;-76
2022/10/23 00:58:39;;;;;;;0.10;0.10;;;12.40;99.90;;;;;;5052500;28;20024;-76
2022/10/23 01:01:20;;;;;;;0.20;0.20;;;12.40;99.90;;;;;;5034739;28;20021;-76
2022/10/23 01:03:47;;;;;;;0.10;0.10;;;12.20;99.90;;;;;;5052306;28;20013;-76
2022/10/23 01:06:36;;;;;;;0.10;0.10;;;12.20;99.90;;;;;;5052076;28;20272;-76
2022/10/23 01:09:14;;;;;;;0.10;0.10;;;12.20;99.90;;;;;;5034595;28;20071;-76
2022/10/23 01:12:04;;;;;;;0.10;0.10;;;12.30;99.90;;;;;;5018169;28;20025;-76
2022/10/23 01:14:49;;;;;;;0.10;0.10;;;12.30;99.90;;;;;;5034514;28;20112;-76
2022/10/23 01:17:33;;;;;;;0.10;0.10;;;12.10;99.90;;;;;;5052279;28;20607;-76
2022/10/23 01:20:23;;;;;;;0.20;0.20;;;11.90;99.90;;;;;;5034356;28;20032;-76
2022/10/23 01:23:30;;;;;;;0.10;0.10;;;11.70;99.90;;;;;;5052344;28;20032;-75
2022/10/23 01:26:39;;;;;;;1.50;1.45;;;11.60;99.90;;;;;;5051090;28;20017;-77
2022/10/23 01:29:31;;;;;;;0.10;0.10;;;11.80;99.90;;;;;;5043966;28;20464;-77
2022/10/23 01:32:08;;;;;;;;;;;12.00;99.90;;;;;;5072533;28;20025;-76
2022/10/23 01:34:40;;;;;;;0.10;0.10;;;12.10;99.90;;;;;;5055519;28;19920;-76
2022/10/23 01:37:10;;;;;;;0.15;0.15;;;12.10;99.90;;;;;;5033945;28;20112;-77
2022/10/23 01:39:40;;;;;;;0.10;0.10;;;12.20;99.90;;;;;;5033954;28;20025;-75
2022/10/23 01:42:10;;;;;;;0.10;0.10;;;12.30;99.90;;;;;;5033759;28;20049;-76
2022/10/23 01:44:43;;;;;;;0.10;0.10;;;12.30;99.90;;;;;;5051933;28;20025;-75
2022/10/23 01:47:12;;;;;;;0.10;0.10;;;12.20;99.90;;;;;;5017555;28;20021;-76
2022/10/23 01:49:40;;;;;;;0.17;0.17;;;12.20;99.90;;;;;;5034070;28;20019;-76
2022/10/23 01:52:10;;;;;;;0.20;0.20;;;12.10;99.90;;;;;;5051987;28;20017;-76
2022/10/23 01:54:40;;;;;;;0.13;0.13;;;12.10;99.90;;;;;;5054387;28;20528;-77
2022/10/23 01:57:09;;;;;;;0.10;0.10;;;12.00;99.90;;;;;;5055928;28;20059;-76
2022/10/23 01:59:43;;;;;;;0.95;0.75;;;11.90;99.90;;;;;;5054984;28;20033;-76
2022/10/23 02:02:11;;;;;;;0.10;0.10;;;11.70;99.90;;;;;;5037970;28;20021;-76
2022/10/23 02:04:59;;;;;;;0.10;0.10;;;11.60;99.90;;;;;;5037999;28;20515;-75
2022/10/23 02:07:25;;;;;;;0.10;0.10;;;11.50;99.90;;;;;;5055759;28;20115;-76
2022/10/23 02:09:51;;;;;;;0.10;0.10;;;11.30;99.90;;;;;;5037804;28;20033;-76
2022/10/23 02:12:36;;;;;;;0.15;0.15;;;11.30;99.90;;;;;;5055982;28;20474;-76
2022/10/23 02:15:13;;;;;;;0.10;0.10;;;11.40;99.90;;;;;;5037534;28;20074;-75
2022/10/23 02:17:48;;;;;;;0.10;0.10;;;11.70;99.90;;;;;;5037773;28;20025;-77
2022/10/23 02:20:17;;;;;;;0.10;0.10;;;11.80;99.90;;;;;;5021150;28;20459;-76
2022/10/23 02:22:53;;;;;;;0.10;0.10;;;11.70;99.90;;;;;;5055511;28;20435;-77
2022/10/23 02:25:26;;;;;;;0.10;0.10;;;11.60;99.90;;;;;;5037423;28;20493;-76
2022/10/23 02:27:55;;;;;;;0.10;0.10;;;11.60;99.90;;;;;;5055479;28;20485;-75
2022/10/23 02:30:21;;;;;;;0.20;0.20;;;11.50;99.90;;;;;;5055403;28;20043;-76
2022/10/23 02:32:51;;;;;;;0.10;0.10;;;11.40;99.90;;;;;;5055366;28;20025;-76
2022/10/23 02:35:20;;;;;;;0.20;0.20;;;11.50;99.90;;;;;;5037140;28;20028;-77
2022/10/23 02:37:58;;;;;;;0.10;0.10;;;11.60;99.90;;;;;;5020813;28;20048;-77
2022/10/23 02:40:30;;;;;;;0.10;0.10;;;11.50;99.90;;;;;;5037185;28;20025;-76
2022/10/23 02:43:21;;;;;;;0.10;0.10;;;11.60;99.90;;;;;;5055089;28;20101;-77
2022/10/23 02:46:07;;;;;;;0.20;0.20;;;11.70;99.90;;;;;;5036837;28;20389;-77
2022/10/23 02:48:40;;;;;;;0.10;0.10;;;11.80;99.90;;;;;;5037154;28;20078;-77
2022/10/23 02:51:33;;;;;;;0.10;0.10;;;11.90;99.90;;;;;;5054795;28;20025;-76
2022/10/23 02:54:05;;;;;;;0.10;0.10;;;11.90;99.90;;;;;;5037086;28;20503;-76
2022/10/23 02:56:49;;;;;;;0.10;0.10;;;11.80;99.90;;;;;;5036873;28;20405;-75
2022/10/23 02:59:23;;;;;;;0.10;0.10;;;11.80;99.90;;;;;;5036945;28;20106;-76
2022/10/23 03:02:05;;;;;;;0.13;0.13;;;11.90;99.90;;;;;;5054839;28;20025;-76
2022/10/23 03:04:32;;;;;;;0.10;0.10;;;11.90;99.90;;;;;;5054521;28;20017;-76
2022/10/23 03:06:58;;;;;;;0.10;0.10;;;12.00;99.90;;;;;;5053662;28;20485;-76
2022/10/23 03:09:26;;;;;;;0.10;0.10;;;11.80;99.90;;;;;;5036741;28;20021;-77
2022/10/23 03:11:51;;;;;;;0.30;0.30;;;11.90;99.90;;;;;;5054707;28;20048;-77
2022/10/23 03:14:18;;;;;;;0.10;0.10;;;11.90;99.90;;;;;;5036561;28;20036;-76
2022/10/23 03:16:44;;;;;;;0.10;0.10;;;11.70;99.90;;;;;;5054372;28;20104;-77
2022/10/23 03:19:10;;;;;;;0.10;0.10;;;11.70;99.90;;;;;;5054393;28;20108;-76
2022/10/23 03:21:36;;;;;;;0.10;0.10;;;11.70;99.90;;;;;;5036501;28;20362;-75
2022/10/23 03:24:02;;;;;;;0.17;0.17;;;11.70;99.90;;;;;;5036612;28;20120;-77
2022/10/23 03:26:28;;;;;;;0.10;0.10;;;11.90;99.90;;;;;;5036356;28;20048;-76
2022/10/23 03:28:54;;;;;;;0.35;0.35;;;12.10;99.90;;;;;;5036484;28;20386;-76
2022/10/23 03:31:19;;;;;;;0.13;0.13;;;12.20;99.90;;;;;;5054200;28;20037;-75
2022/10/23 03:33:45;;;;;;;0.20;0.20;;;12.10;99.90;;;;;;5054253;28;20103;-77
2022/10/23 03:36:11;;;;;;;0.10;0.10;;;12.10;99.90;;;;;;5035929;28;20480;-77
2022/10/23 03:38:37;;;;;;;0.20;0.20;;;12.10;99.90;;;;;;5054085;28;20036;-76
2022/10/23 03:41:02;;;;;;;0.10;0.10;;;12.00;99.90;;;;;;5036390;28;20036;-76
2022/10/23 03:43:28;;;;;;;0.10;0.10;;;12.00;99.90;;;;;;5053974;28;20056;-76
2022/10/23 03:45:57;;;;;;;0.10;0.10;;;11.90;99.90;;;;;;5019408;28;20017;-76
2022/10/23 03:48:23;;;;;;;0.10;0.10;;;11.90;99.90;;;;;;5054036;28;20023;-76
2022/10/23 03:50:49;;;;;;;0.10;0.10;;;11.80;99.90;;;;;;5019408;28;20508;-76
2022/10/23 03:53:15;;;;;;;0.10;0.10;;;11.80;99.90;;;;;;5053804;28;20029;-77
2022/10/23 03:55:43;;;;;;;0.13;0.13;;;11.80;99.90;;;;;;5035914;28;20124;-77
2022/10/23 03:58:08;;;;;;;0.10;0.10;;;11.80;99.90;;;;;;5036018;28;20017;-77
2022/10/23 04:00:34;;;;;;;0.10;0.10;;;11.80;99.90;;;;;;5035731;28;20025;-76
2022/10/23 04:03:00;;;;;;;0.10;0.10;;;11.80;99.90;;;;;;5053564;28;20037;-76
2022/10/23 04:05:26;;;;;;;0.10;0.10;;;11.80;99.90;;;;;;5053361;28;20082;-76
2022/10/23 04:07:52;;;;;;;0.10;0.10;;;11.70;99.90;;;;;;5035798;28;20433;-76
2022/10/23 04:10:18;;;;;;;0.10;0.10;;;11.70;99.90;;;;;;5053748;28;20044;-76
2022/10/23 04:12:44;;;;;;;0.10;0.10;;;11.70;99.90;;;;;;5035659;28;20078;-76
2022/10/23 04:15:10;;;;;;;0.10;0.10;;;11.70;99.90;;;;;;5053348;28;20580;-77
2022/10/23 04:17:36;;;;;;;0.10;0.10;;;11.80;99.90;;;;;;5053255;28;20056;-76
2022/10/23 04:20:01;;;;;;;0.10;0.10;;;11.80;99.90;;;;;;5035518;28;20024;-76
2022/10/23 04:22:27;;;;;;;0.10;0.10;;;11.80;99.90;;;;;;5035378;28;20021;-76
2022/10/23 04:24:53;;;;;;;0.10;0.10;;;11.60;99.90;;;;;;5053089;28;20067;-76
2022/10/23 04:27:19;;;;;;;0.10;0.10;;;11.40;99.90;;;;;;5035354;28;20075;-77
2022/10/23 04:29:44;;;;;;;0.10;0.10;;;11.40;99.90;;;;;;5018578;28;20400;-76
2022/10/23 04:32:10;;;;;;;0.13;0.13;;;11.40;99.90;;;;;;5052938;28;20511;-77
2022/10/23 04:34:36;;;;;;;0.10;0.10;;;11.50;99.90;;;;;;5053152;28;20071;-76
2022/10/23 04:37:01;;;;;;;0.10;0.10;;;11.60;99.90;;;;;;5053223;28;20054;-76
2022/10/23 04:39:27;;;;;;;0.10;0.10;;;11.80;99.90;;;;;;5052903;28;20067;-77
2022/10/23 04:41:53;;;;;;;0.20;0.20;;;11.90;99.90;;;;;;5052901;28;20070;-76
2022/10/23 04:44:19;;;;;;;0.10;0.10;;;11.80;99.90;;;;;;5018490;28;20120;-76
2022/10/23 04:46:44;;;;;;;0.10;0.10;;;11.80;99.90;;;;;;5034916;28;20431;-76
2022/10/23 04:49:10;;;;;;;0.20;0.20;;;11.90;99.90;;;;;;5034997;28;20029;-76
2022/10/23 04:51:37;;;;;;;0.20;0.20;;;11.80;99.90;;;;;;5052516;28;20066;-77
2022/10/23 04:54:03;;;;;;;0.10;0.10;;;11.90;99.90;;;;;;5034706;28;20118;-76
2022/10/23 04:56:28;;;;;;;0.10;0.10;;;11.90;99.90;;;;;;5052960;28;20060;-76
2022/10/23 04:58:54;;;;;;;0.10;0.10;;;12.00;99.90;;;;;;5052463;28;20114;-76
2022/10/23 05:01:20;;;;;;;0.10;0.10;;;12.10;99.90;;;;;;5034748;28;20029;-77
2022/10/23 05:03:46;;;;;;;0.10;0.10;;;12.00;99.90;;;;;;5034561;28;20032;-76
2022/10/23 05:06:11;;;;;;;0.10;0.10;;;12.00;99.90;;;;;;5052254;28;20213;-77
2022/10/23 05:08:37;;;;;;;0.10;0.10;;;12.00;99.90;;;;;;5018217;28;20021;-77
2022/10/23 05:11:03;;;;;;;0.10;0.10;;;12.00;99.90;;;;;;5034812;28;20055;-77
2022/10/23 05:13:29;;;;;;;0.10;0.10;;;12.00;99.90;;;;;;5018068;28;20035;-77
2022/10/23 05:15:58;;;;;;;0.10;0.10;;;12.00;99.90;;;;;;5052162;28;20534;-77
2022/10/23 05:18:24;;;;;;;0.17;0.17;;;12.00;99.90;;;;;;5052267;28;20013;-78
2022/10/23 05:20:55;;;;;;;0.10;0.10;;;11.90;99.90;;;;;;5052128;28;20086;-76
2022/10/23 05:23:23;;;;;;;0.20;0.20;;;11.90;99.90;;;;;;5034460;28;20021;-76
2022/10/23 05:25:49;;;;;;;0.10;0.10;;;11.90;99.90;;;;;;5051926;28;20096;-77
2022/10/23 05:28:14;;;;;;;0.30;0.30;;;11.80;99.90;;;;;;5051855;28;20170;-78
2022/10/23 05:30:41;;;;;;;2.60;1.75;;;11.60;99.90;;;;;;5034228;28;20468;-76
2022/10/23 05:33:07;;;;;;;0.10;0.10;;;11.40;99.90;;;;;;5052121;28;20063;-76
2022/10/23 05:35:35;;;;;;;0.10;0.10;;;11.40;99.90;;;;;;5051744;28;20017;-75
2022/10/23 05:38:01;;;;;;;0.10;0.10;;;11.50;99.90;;;;;;5034179;28;20029;-76
2022/10/23 05:40:27;;;;;;;0.17;0.17;;;11.70;99.90;;;;;;5033966;28;20481;-75
2022/10/23 05:42:52;;;;;;;0.10;0.10;;;11.60;99.90;;;;;;5017705;28;20117;-76
2022/10/23 05:45:18;;;;;;;0.10;0.10;;;11.50;99.90;;;;;;5017319;28;20025;-76
2022/10/23 05:47:45;;;;;;;0.10;0.10;;;11.60;99.90;;;;;;5034020;28;20045;-76
2022/10/23 05:50:11;;;;;;;2.17;0.52;;;11.60;99.90;;;;;;5051795;28;20025;-76
2022/10/23 05:52:37;;;;;;;0.20;0.20;;;11.60;99.90;;;;;;5051448;28;20032;-76
2022/10/23 05:55:03;;;;;;;0.10;0.10;;;11.80;99.90;;;;;;5017321;28;20098;-77
2022/10/23 05:57:32;;;;;;;0.10;0.10;;;11.80;99.90;;;;;;5034003;28;20476;-75
2022/10/23 05:59:58;;;;;;;0.20;0.20;;;11.70;99.90;;;;;;5051779;28;20028;-76
2022/10/23 06:02:23;;;;;;;0.20;0.20;;;11.50;99.90;;;;;;5033191;28;20096;-76
2022/10/23 06:04:49;;;;;;;0.10;0.10;;;11.40;99.90;;;;;;5033549;28;20603;-76
2022/10/23 06:07:15;;;;;;;0.20;0.20;;;11.40;99.90;;;;;;5051389;28;20025;-76
2022/10/23 06:09:41;;;;;;;0.17;0.17;;;11.30;99.90;;;;;;5033925;28;20029;-76
2022/10/23 06:12:06;;;;;;;0.20;0.20;;;11.30;99.90;;;;;;5033868;28;20028;-75
2022/10/23 06:14:32;;;;;;;0.10;0.10;;;11.30;99.90;;;;;;5051519;28;20500;-76
2022/10/23 06:16:58;;;;;;;0.10;0.10;;;11.50;99.90;;;;;;5051418;28;20017;-76
2022/10/23 06:19:23;;;;;;;0.10;0.10;;;11.60;99.90;;;;;;5051384;28;20033;-76
2022/10/23 06:21:50;;;;;;;0.10;0.10;;;11.70;99.90;;;;;;5051506;28;20104;-75
2022/10/23 06:24:16;;;;;;;0.10;0.10;;;11.80;99.90;;;;;;5051322;28;20021;-76
2022/10/23 06:26:42;;;;;;;0.10;0.10;;;11.80;99.90;;;;;;5017131;28;20028;-76
2022/10/23 06:29:07;;;;;;;0.10;0.10;;;11.90;99.90;;;;;;5051404;28;20097;-76
2022/10/23 06:31:33;;;;;;;0.20;0.20;;;11.80;99.90;;;;;;5033529;28;20051;-76
2022/10/23 06:33:59;;;;;;;0.20;0.20;;;11.70;99.90;;;;;;5051339;28;20388;-76
2022/10/23 06:36:25;;;;;;;0.20;0.20;;;11.70;99.90;;;;;;5033444;28;20025;-76
2022/10/23 06:38:51;;;;;;;0.10;0.10;;;11.70;99.90;;;;;;5031037;28;20088;-76
2022/10/23 06:41:19;;;;;;;0.10;0.10;;;11.90;99.90;;;;;;5035513;28;20061;-75
2022/10/23 06:43:50;;;;;;;0.15;0.15;;;12.00;99.90;;;;;;5054954;28;20021;-76
2022/10/23 06:46:17;;;;;;;0.10;0.10;;;12.10;99.90;;;;;;5054824;28;20013;-75
2022/10/23 06:48:43;;;;;;;0.10;0.10;;;12.10;99.90;;;;;;5054959;28;20017;-76
2022/10/23 06:51:11;;;;;;;0.20;0.20;;;12.10;99.90;;;;;;5054924;28;20017;-76
2022/10/23 06:53:38;;;;;;;0.20;0.20;;;12.10;99.90;;;;;;5036794;28;20036;-76
2022/10/23 06:56:05;;;;;;;0.20;0.20;;;12.30;99.90;;;;;;5036585;28;20022;-76
2022/10/23 06:58:32;;;;;;;0.15;0.15;;;12.30;99.90;;;;;;5054664;28;20028;-75
2022/10/23 07:01:03;;;;;;;0.10;0.10;;;12.50;99.90;;;;;;5036932;28;20051;-76
2022/10/23 07:03:29;;;;;;;0.10;0.10;;;12.60;99.90;;;;;;5054732;28;20430;-75
2022/10/23 07:05:54;;;;;;;0.10;0.10;;;12.60;99.90;;;;;;5054498;28;20075;-76
2022/10/23 07:08:20;;;;;;;0.10;0.10;;;12.60;99.90;;;;;;5053324;28;20055;-76
2022/10/23 07:10:47;;;;;;;0.10;0.10;;;12.70;99.90;;;;;;5055000;28;20457;-75
2022/10/23 07:13:13;;;;;;;0.10;0.10;;;12.70;99.90;;;;;;5054405;28;20051;-76
2022/10/23 07:15:40;;;;;;;0.10;0.10;;;12.70;99.90;;;;;;5036517;28;20029;-75
2022/10/23 07:18:06;;;;;;;0.20;0.20;;;12.80;99.90;;;;;;5036502;28;20436;-76
2022/10/23 07:20:31;;;;;;;0.10;0.10;;;12.80;99.90;;;;;;5036556;28;20380;-76
2022/10/23 07:22:57;;;;;;;0.10;0.10;;;12.80;99.90;;;;;;5036131;28;20032;-76
2022/10/23 07:25:25;;;;;;;0.10;0.10;;;12.90;99.90;;;;;;5054327;28;20459;-76
2022/10/23 07:27:51;;;;;;;0.10;0.10;;;12.90;99.90;;;;;;5054334;28;20103;-75
2022/10/23 07:30:17;;;;;;;0.10;0.10;;;13.00;99.90;;;;;;5036406;28;20029;-75
2022/10/23 07:32:43;;;;;;;0.10;0.10;;;13.10;99.90;;;;;;5053940;28;20033;-76
2022/10/23 07:35:11;;;;;;;0.10;0.10;;;13.10;99.90;;;;;;5053863;28;20044;-76
2022/10/23 07:37:37;;;;;;;0.20;0.20;;;13.10;99.90;;;;;;5036209;28;20064;-76
2022/10/23 07:40:06;;;;;;;0.20;0.20;;;13.20;99.90;;;;;;5036125;28;20056;-75
2022/10/23 07:42:32;;;;;;;0.10;0.10;;;13.20;99.90;;;;;;5054097;28;20071;-76
2022/10/23 07:44:58;;;;;;;0.17;0.17;;;13.20;99.90;;;;;;5053662;28;20029;-75
2022/10/23 07:47:24;;;;;;;0.10;0.10;;;13.30;99.90;;;;;;5034780;28;20477;-76
2022/10/23 07:49:49;;;;;;;0.10;0.10;;;13.40;99.90;;;;;;5052530;28;20032;-75
2022/10/23 07:52:16;;;;;;;0.10;0.10;;;13.50;99.90;;;;;;5019018;28;20054;-76
2022/10/23 07:54:42;;;;;;;0.10;0.10;;;13.60;99.90;;;;;;5048575;28;20026;-75
2022/10/23 07:57:10;;;;;;;0.20;0.20;;;13.70;99.90;;;;;;5052339;28;20029;-75
2022/10/23 07:59:37;;;;;;;0.10;0.10;;;13.80;99.90;;;;;;5053391;28;20025;-76
2022/10/23 08:02:03;;;;;;;0.10;0.10;;;13.90;99.90;;;;;;5053798;28;20036;-76
2022/10/23 08:04:29;;;;;;;0.10;0.10;;;14.00;99.90;;;;;;5057246;28;20508;-76
2022/10/23 08:06:55;;;;;;;0.10;0.10;;;14.10;99.90;;;;;;5035159;28;20025;-75
2022/10/23 08:09:21;;;;;;;0.20;0.20;;;14.20;99.90;;;;;;5035405;28;20120;-76
2022/10/23 08:11:47;;;;;;;0.17;0.17;;;14.30;99.90;;;;;;5053076;28;20532;-75
2022/10/23 08:14:13;;;;;;;0.10;0.10;;;14.40;99.90;;;;;;5038146;28;20094;-76
2022/10/23 08:16:39;;;;;;;0.10;0.10;;;14.50;99.90;;;;;;5053331;28;20028;-76
2022/10/23 08:19:06;;;;;;;0.10;0.10;;;14.50;99.90;;;;;;5053320;28;20422;-76
2022/10/23 08:21:33;;;;;;;0.10;0.10;;;14.60;99.90;;;;;;5018539;28;20025;-75
2022/10/23 08:23:59;;;;;;;0.10;0.10;;;14.70;99.90;;;;;;5035317;28;20025;-76
2022/10/23 08:26:28;;;;;;;0.10;0.10;;;14.80;99.90;;;;;;5053105;28;20534;-76
2022/10/23 08:28:54;;;;;;;0.10;0.10;;;14.90;99.90;;;;;;5034778;28;20021;-76
2022/10/23 08:31:21;;;;;;;0.30;0.30;;;15.10;99.90;;;;;;5053036;28;20451;-76
2022/10/23 08:33:47;;;;;;;0.10;0.10;;;15.20;99.90;;;;;;5035104;28;20059;-75
2022/10/23 08:36:21;;;;;;;0.10;0.10;;;15.30;99.90;;;;;;5052926;28;20057;-76
2022/10/23 08:38:47;;;;;;;0.10;0.10;;;15.40;99.90;;;;;;5063495;28;20058;-75
2022/10/23 08:41:24;;;;;;;0.10;0.10;;;15.50;99.90;;;;;;5072759;28;20043;-76
2022/10/23 08:44:22;;;;;;;0.10;0.10;;;15.60;99.90;;;;;;5054965;28;20044;-76
2022/10/23 08:47:02;;;;;;;0.10;0.10;;;15.70;99.90;;;;;;5044832;28;20028;-76
2022/10/23 08:49:33;;;;;;;0.10;0.10;;;15.80;99.90;;;;;;5054876;28;20078;-75
2022/10/23 08:52:04;;;;;;;0.75;0.75;;;15.90;99.90;;;;;;5037485;28;20035;-76
2022/10/23 08:54:38;;;;;;;0.20;0.20;;;16.10;99.90;;;;;;5072574;28;20111;-75
2022/10/23 08:57:12;;;;;;;0.10;0.10;;;16.20;99.90;;;;;;5054447;28;20034;-75
2022/10/23 08:59:46;;;;;;;0.10;0.10;;;16.30;99.90;;;;;;5072437;28;20059;-76
2022/10/23 09:02:23;;;;;;;0.10;0.10;;;16.40;99.90;;;;;;5072274;28;20029;-77
2022/10/23 09:04:52;;;;;;;0.10;0.10;;;16.50;99.90;;;;;;5053782;28;20030;-76
2022/10/23 09:07:45;;;;;;;0.10;0.10;;;16.70;99.90;;;;;;5037664;28;20020;-77
2022/10/23 09:10:30;;;;;;;0.10;0.10;;;16.70;99.90;;;;;;5054515;28;20408;-76
2022/10/23 09:13:31;;;;;;;0.10;0.10;;;16.90;99.90;;;;;;5037576;28;20097;-77
2022/10/23 09:16:14;;;;;;;0.20;0.20;;;17.00;99.90;;;;;;5054159;28;20035;-76
2022/10/23 09:18:41;;;;;;;0.10;0.10;;;17.20;99.90;;;;;;5053890;28;20029;-76
2022/10/23 09:21:10;;;;;;;0.10;0.10;;;17.60;99.90;;;;;;5054160;28;20082;-77
2022/10/23 09:23:37;;;;;;;0.10;0.10;;;18.10;99.90;;;;;;5072006;28;20074;-77
2022/10/23 09:26:14;;;;;;;0.10;0.10;;;18.60;99.90;;;;;;5071942;28;20020;-77
2022/10/23 09:28:48;;;;;;;0.10;0.10;;;19.10;99.90;;;;;;5072119;28;20020;-76
2022/10/23 09:31:15;;;;;;;0.00;0.00;;;19.60;99.90;;;;;;5071972;28;20023;-77
2022/10/23 09:33:52;;;;;;;0.00;0.00;;;20.10;99.90;;;;;;5054101;28;20483;-76
2022/10/23 09:36:20;;;;;;;0.22;0.22;;;20.70;99.90;;;;;;5053931;28;20365;-77
2022/10/23 09:38:45;;;;;;;0.00;0.00;;;21.00;99.90;;;;;;5053993;28;20031;-76
2022/10/23 09:41:20;;;;;;;0.00;0.00;;;21.20;99.90;;;;;;5071459;28;20480;-77
2022/10/23 09:43:46;;;;;;;0.00;0.00;;;21.40;98.10;;;;;;5071658;28;20028;-76
2022/10/23 09:46:12;;;;;;;0.00;0.00;;;21.80;96.60;;;;;;5071729;28;20021;-76
2022/10/23 09:48:39;;;;;;;0.10;0.10;;;22.10;96.10;;;;;;5071797;28;20027;-76
2022/10/23 09:51:19;;;;;;;0.10;0.10;;;22.80;94.00;;;;;;5071875;28;20524;-77
2022/10/23 09:53:48;;;;;;;0.00;0.00;;;23.20;92.60;;;;;;5054068;28;20087;-77
2022/10/23 09:56:30;;;;;;;0.00;0.00;;;23.60;94.20;;;;;;5071632;28;20059;-77
2022/10/23 09:59:15;;;;;;;;;;;23.70;93.60;;;;;;5054265;28;20059;-77
2022/10/23 10:01:47;;;;;;;0.00;0.00;;;23.70;92.00;;;;;;5053174;28;19904;-77
2022/10/23 10:04:13;;;;;;;0.20;0.20;;;24.10;91.00;;;;;;5053671;28;20028;-77
2022/10/23 10:06:39;;;;;;;0.00;0.00;;;24.20;90.60;;;;;;5071561;28;20060;-77
2022/10/23 10:09:12;;;;;;;0.05;0.05;;;24.40;90.40;;;;;;5071877;28;20044;-77
2022/10/23 10:11:52;;;;;;;0.00;0.00;;;24.70;90.00;;;;;;5054029;28;20101;-77
2022/10/23 10:14:28;;;;;;;0.38;0.35;;;24.30;88.40;;;;;;5054344;28;20029;-77
2022/10/23 10:17:29;;;;;;;0.00;0.00;;;24.50;85.40;;;;;;5075666;28;20044;-77
2022/10/23 10:20:18;;;;;;;0.00;0.00;;;24.90;82.10;;;;;;5057790;28;20108;-77
2022/10/23 10:22:55;;;;;;;0.00;0.00;;;25.30;82.60;;;;;;5075606;28;20384;-76
2022/10/23 10:25:51;;;;;;;0.00;0.00;;;25.50;81.00;;;;;;5040850;28;20067;-77
2022/10/23 10:28:47;;;;;;;0.28;0.28;;;25.80;80.00;;;;;;5057904;28;20017;-77
2022/10/23 10:31:28;;;;;;;0.10;0.10;;;25.70;79.90;;;;;;5075336;28;20099;-77
2022/10/23 10:34:26;;;;;;;0.00;0.00;;;25.70;78.20;;;;;;5057649;28;20012;-77
2022/10/23 10:36:57;;;;;;;0.00;0.00;;;25.70;76.20;;;;;;5057269;28;20423;-77
2022/10/23 10:39:46;;;;;;;0.00;0.00;;;25.80;79.10;;;;;;5075164;28;20029;-77
2022/10/23 10:42:21;;;;;;;0.00;0.00;;;26.20;76.60;;;;;;5057288;28;20030;-77
2022/10/23 10:45:05;;;;;;;0.00;0.00;;;26.70;74.70;;;;;;5057103;28;20017;-77
2022/10/23 10:47:55;;;;;;;0.45;0.20;;;26.80;74.00;;;;;;5056156;28;20021;-77
2022/10/23 10:50:27;;;;;;;0.00;0.00;;;26.40;74.10;;;;;;5039831;28;20044;-77
2022/10/23 10:53:20;;;;;;;0.00;0.00;;;26.20;75.60;;;;;;5055212;28;20078;-77
2022/10/23 10:55:50;;;;;;;0.00;0.00;;;26.10;75.40;;;;;;5054237;28;20094;-77
2022/10/23 10:58:37;;;;;;;0.00;0.00;;;25.80;76.00;;;;;;5020499;28;20071;-77
2022/10/23 11:01:18;;;;;;;0.30;0.30;;;25.40;77.90;;;;;;5036794;28;20083;-77
2022/10/23 11:03:53;;;;;;;0.00;0.00;;;25.10;75.70;;;;;;5054597;28;20021;-77
2022/10/23 11:06:23;;;;;;;0.30;0.30;;;24.10;80.10;;;;;;5054261;28;20516;-77
2022/10/23 11:08:49;;;;;;;0.00;0.00;;;23.80;81.70;;;;;;5054766;28;20028;-77
2022/10/23 11:11:25;;;;;;;0.00;0.00;;;23.80;83.60;;;;;;5054713;28;20032;-77
2022/10/23 11:13:52;;;;;;;0.00;0.00;;;23.90;84.00;;;;;;5054711;28;20013;-77
2022/10/23 11:16:32;;;;;;;0.00;0.00;;;24.60;81.50;;;;;;5054552;28;20025;-77
2022/10/23 11:19:11;;;;;;;0.00;0.00;;;25.10;79.80;;;;;;5054471;28;20021;-77
2022/10/23 11:21:51;;;;;;;0.10;0.10;;;25.70;77.80;;;;;;5054522;28;20048;-77
2022/10/23 11:24:26;;;;;;;0.00;0.00;;;25.50;78.30;;;;;;5036638;28;20021;-77
2022/10/23 11:26:52;;;;;;;0.00;0.00;;;25.50;76.70;;;;;;5035646;28;20441;-77
2022/10/23 11:29:37;;;;;;;0.00;0.00;;;25.60;76.50;;;;;;5054424;28;20067;-77
2022/10/23 11:32:21;;;;;;;0.00;0.00;;;25.50;77.10;;;;;;5036570;28;20100;-77
2022/10/23 11:35:01;;;;;;;0.00;0.00;;;25.30;77.00;;;;;;5054272;28;20524;-77
2022/10/23 11:37:27;;;;;;;1.35;0.35;;;24.80;79.50;;;;;;5054320;28;20411;-77
2022/10/23 11:40:05;;;;;;;0.00;0.00;;;24.20;80.80;;;;;;5054086;28;20029;-77
2022/10/23 11:42:33;;;;;;;0.00;0.00;;;24.10;82.10;;;;;;5053865;28;20017;-77
2022/10/23 11:44:59;;;;;;;0.10;0.10;;;24.00;83.10;;;;;;5053261;28;20021;-77
2022/10/23 11:47:37;;;;;;;0.60;0.25;;;24.10;82.20;;;;;;5036306;28;20032;-77
2022/10/23 11:50:06;;;;;;;0.00;0.00;;;24.20;83.20;;;;;;5054583;28;20028;-77
2022/10/23 11:52:53;;;;;;;0.00;0.00;;;24.60;82.40;;;;;;5036325;28;20028;-77
2022/10/23 11:55:23;;;;;;;0.00;0.00;;;25.00;80.50;;;;;;5053835;28;20489;-76
2022/10/23 11:58:17;;;;;;;0.00;0.00;;;24.80;79.80;;;;;;5053968;28;20054;-79
2022/10/23 12:00:54;;;;;;;0.00;0.00;;;24.70;81.50;;;;;;5036160;28;20531;-77
2022/10/23 12:03:27;;;;;;;0.00;0.00;;;24.80;81.70;;;;;;5054770;28;20025;-77
2022/10/23 12:05:59;;;;;;;0.00;0.00;;;25.20;79.20;;;;;;5035613;28;20476;-77
2022/10/23 12:08:29;;;;;;;0.00;0.00;;;25.10;81.10;;;;;;5019440;28;20369;-76
2022/10/23 12:10:54;;;;;;;0.00;0.00;;;24.90;81.50;;;;;;5035548;28;20025;-77
2022/10/23 12:13:35;;;;;;;0.00;0.00;;;25.30;82.20;;;;;;5019137;28;20396;-77
2022/10/23 12:16:01;;;;;;;0.00;0.00;;;25.10;82.80;;;;;;5035427;28;20032;-77
2022/10/23 12:18:27;;;;;;;0.10;0.10;;;25.10;82.90;;;;;;5035678;28;20025;-77
2022/10/23 12:20:57;;;;;;;0.00;0.00;;;25.20;83.40;;;;;;5053274;28;20524;-76
2022/10/23 12:23:40;;;;;;;0.00;0.00;;;25.70;81.80;;;;;;5053400;28;20021;-77
2022/10/23 12:26:44;;;;;;;0.00;0.00;;;26.00;79.90;;;;;;5053141;28;20029;-77
2022/10/23 12:29:34;;;;;;;0.00;0.00;;;25.60;79.60;;;;;;5018813;28;20028;-77
2022/10/23 12:32:18;;;;;;;0.00;0.00;;;25.70;79.80;;;;;;5053281;28;20495;-77
2022/10/23 12:35:08;;;;;;;0.10;0.10;;;25.40;81.10;;;;;;5053095;28;20025;-77
2022/10/23 12:37:58;;;;;;;0.00;0.00;;;25.20;80.40;;;;;;5052747;28;20361;-76
2022/10/23 12:40:29;;;;;;;0.00;0.00;;;25.70;80.20;;;;;;5052922;28;20503;-77
2022/10/23 12:42:58;;;;;;;0.00;0.00;;;26.00;78.90;;;;;;5052971;28;20040;-76
2022/10/23 12:45:38;;;;;;;0.00;0.00;;;26.00;78.20;;;;;;5052695;28;20025;-77
2022/10/23 12:48:04;;;;;;;0.00;0.00;;;26.10;78.10;;;;;;5053064;28;20021;-78
2022/10/23 12:50:31;;;;;;;0.00;0.00;;;26.30;77.60;;;;;;5052776;28;20039;-77
2022/10/23 12:53:02;;;;;;;0.65;0.05;;;26.10;78.60;;;;;;5034767;28;20025;-77
2022/10/23 12:55:33;;;;;;;0.00;0.00;;;25.60;79.90;;;;;;5034649;28;20029;-77
2022/10/23 12:57:58;;;;;;;0.10;0.10;;;24.80;80.60;;;;;;5034816;28;20496;-77
2022/10/23 13:00:24;;;;;;;0.00;0.00;;;24.20;83.20;;;;;;5052379;28;20029;-77
2022/10/23 13:02:58;;;;;;;0.00;0.00;;;24.00;84.50;;;;;;5052490;28;20024;-77
2022/10/23 13:05:25;;;;;;;0.00;0.00;;;23.80;85.70;;;;;;5052387;28;20067;-77
2022/10/23 13:07:51;;;;;;;0.00;0.00;;;23.70;87.00;;;;;;5034523;28;20373;-76
2022/10/23 13:13:03;;;;;;;0.00;0.00;;;23.70;86.80;;;;;;5062701;28;20041;-78